Time;durP1;ratioP1;P1;durP2;ratioP2;P2;SDS_P1;SDS_P2;PMS_P1;PMS_P2;Temp;Humidity;BMP_temperature;BMP_pressure;BME280_temperature;BME280_humidity;BME280_pressure;Samples;Min_cycle;Max_cycle;Signal;HPM_P1;HPM_P2
2022/10/21 00:00:24;;;;;;;10.05;6.60;;;;;;;7.08;74.04;100367.22;4975391;28;20030;-90
2022/10/21 00:02:50;;;;;;;11.40;7.25;;;;;;;7.19;73.93;100375.56;4968544;28;20456;-90
2022/10/21 00:05:15;;;;;;;8.77;6.30;;;;;;;7.01;74.28;100371.81;4981436;28;20033;-90
2022/10/21 00:07:41;;;;;;;9.10;6.60;;;;;;;6.88;75.04;100358.56;4976756;28;20022;-89
2022/10/21 00:10:07;;;;;;;10.93;7.32;;;;;;;6.78;75.51;100353.69;4975793;28;20388;-90
2022/10/21 00:12:32;;;;;;;10.23;7.18;;;;;;;6.68;75.84;100348.00;4972012;28;20025;-90
2022/10/21 00:14:58;;;;;;;10.48;6.45;;;;;;;6.74;74.93;100355.16;4971765;28;20041;-90
2022/10/21 00:17:23;;;;;;;10.27;6.50;;;;;;;6.81;74.58;100353.25;4978504;28;20069;-91
2022/10/21 00:19:49;;;;;;;8.07;6.40;;;;;;;7.06;73.92;100358.59;4972884;28;20017;-90
2022/10/21 00:22:14;;;;;;;10.75;6.13;;;;;;;7.07;73.96;100354.84;4979295;28;20115;-90
2022/10/21 00:24:40;;;;;;;9.95;6.55;;;;;;;6.78;74.80;100345.66;4969816;28;20025;-90
2022/10/21 00:27:05;;;;;;;10.05;5.82;;;;;;;6.79;75.10;100357.19;4970213;28;20021;-90
2022/10/21 00:29:31;;;;;;;8.80;6.30;;;;;;;6.68;74.40;100332.78;4973541;28;20029;-91
2022/10/21 00:31:56;;;;;;;11.20;7.13;;;;;;;6.78;74.99;100360.91;4975035;28;20052;-90
2022/10/21 00:34:22;;;;;;;9.43;6.55;;;;;;;6.87;74.17;100348.91;4989894;28;20033;-90
2022/10/21 00:36:47;;;;;;;17.55;6.80;;;;;;;6.57;74.99;100325.44;4970937;28;20041;-91
2022/10/21 00:39:13;;;;;;;10.70;6.13;;;;;;;6.59;74.73;100330.59;4970730;28;20092;-90
2022/10/21 00:41:38;;;;;;;8.48;6.07;;;;;;;6.68;74.99;100340.81;4971285;28;20462;-90
2022/10/21 00:44:10;;;;;;;11.02;6.60;;;;;;;6.79;74.63;100341.94;4974166;28;20033;-90
2022/10/21 00:46:43;;;;;;;8.18;5.97;;;;;;;6.74;74.79;100360.50;4981664;28;20064;-90
2022/10/21 00:49:31;;;;;;;10.60;6.60;;;;;;;6.47;75.73;100336.66;4977071;28;20049;-90
2022/10/21 00:51:58;;;;;;;9.88;6.03;;;;;;;6.48;75.50;100346.31;4971801;28;20144;-90
2022/10/21 00:54:24;;;;;;;8.00;5.53;;;;;;;6.60;74.92;100335.72;4971911;28;20037;-90
2022/10/21 00:56:49;;;;;;;11.10;6.53;;;;;;;6.44;75.61;100331.72;4968590;28;20072;-90
2022/10/21 00:59:15;;;;;;;9.45;6.50;;;;;;;6.38;75.62;100332.59;4968536;28;20108;-90
2022/10/21 01:01:40;;;;;;;9.05;6.03;;;;;;;6.33;74.84;100326.25;4968033;28;20057;-90
2022/10/21 01:04:06;;;;;;;12.77;7.10;;;;;;;6.41;75.06;100334.00;4970113;28;20128;-90
2022/10/21 01:06:31;;;;;;;11.13;6.53;;;;;;;6.35;75.43;100337.56;4969035;28;20037;-90
2022/10/21 01:08:57;;;;;;;9.18;6.45;;;;;;;6.26;75.44;100329.78;4984781;28;20080;-90
2022/10/21 01:11:23;;;;;;;13.02;7.60;;;;;;;6.22;75.53;100339.28;4973221;28;20083;-90
2022/10/21 01:14:07;;;;;;;10.65;7.70;;;;;;;6.26;76.15;100347.69;4969249;28;20022;-90
2022/10/21 01:16:55;;;;;;;10.63;6.75;;;;;;;6.18;75.44;100330.06;5005231;28;20480;-90
2022/10/21 01:19:27;;;;;;;14.23;10.30;;;;;;;6.19;76.57;100354.97;4983951;28;20052;-89
2022/10/21 01:22:14;;;;;;;17.58;12.15;;;;;;;6.10;75.67;100351.72;5000584;28;20033;-91
2022/10/21 01:24:50;;;;;;;14.50;11.13;;;;;;;5.86;75.74;100327.34;4997267;28;20034;-89
2022/10/21 01:27:27;;;;;;;13.52;7.78;;;;;;;5.90;75.98;100349.13;4984696;28;20044;-89
2022/10/21 01:30:34;;;;;;;11.90;8.13;;;;;;;5.85;76.86;100354.28;5000131;28;20026;-90
2022/10/21 01:32:59;;;;;;;12.77;7.97;;;;;;;5.75;78.25;100352.06;4940966;29;20041;-90
2022/10/21 01:35:41;;;;;;;11.27;6.82;;;;;;;5.68;77.22;100348.59;4937581;29;20125;-90
2022/10/21 01:38:11;;;;;;;11.38;7.38;;;;;;;5.61;77.72;100335.28;4958917;28;20033;-91
2022/10/21 01:40:43;;;;;;;11.40;7.28;;;;;;;5.64;77.42;100344.69;4974183;28;20049;-91
2022/10/21 01:43:22;;;;;;;15.77;7.67;;;;;;;5.51;77.67;100340.25;4995132;28;20483;-92
2022/10/21 01:45:50;;;;;;;11.18;7.28;;;;;;;5.38;78.22;100327.75;4987359;28;20252;-90
2022/10/21 01:48:21;;;;;;;12.52;7.43;;;;;;;5.35;77.44;100327.34;4992911;28;20021;-91
2022/10/21 01:50:58;;;;;;;11.10;6.88;;;;;;;5.32;77.75;100331.28;4983146;28;20494;-90
2022/10/21 01:53:26;;;;;;;13.70;7.15;;;;;;;5.29;76.71;100326.31;4973847;28;20492;-91
2022/10/21 01:55:52;;;;;;;10.40;6.97;;;;;;;5.32;77.05;100335.78;4972170;28;20463;-91
2022/10/21 01:58:19;;;;;;;9.98;7.22;;;;;;;5.19;78.00;100321.44;4967464;28;20064;-90
2022/10/21 02:00:45;;;;;;;15.18;7.75;;;;;;;5.25;77.18;100333.97;4973650;28;20026;-91
2022/10/21 02:03:12;;;;;;;15.02;8.60;;;;;;;5.35;77.00;100352.19;4974609;28;20026;-91
2022/10/21 02:05:38;;;;;;;15.48;7.70;;;;;;;5.21;77.36;100331.94;4973243;28;20028;-91
2022/10/21 02:08:03;;;;;;;12.68;7.38;;;;;;;5.16;77.62;100337.88;4968169;28;20014;-91
2022/10/21 02:10:33;;;;;;;15.27;7.32;;;;;;;5.09;77.43;100328.25;4982635;28;20022;-91
2022/10/21 02:12:59;;;;;;;13.18;8.13;;;;;;;5.13;77.62;100338.31;4972884;28;20026;-90
2022/10/21 02:15:24;;;;;;;11.25;7.70;;;;;;;5.00;76.57;100335.63;4983958;28;20557;-90
2022/10/21 02:18:01;;;;;;;12.27;8.27;;;;;;;5.09;78.10;100363.78;4983953;28;20018;-91
2022/10/21 02:20:27;;;;;;;13.75;8.55;;;;;;;5.08;77.58;100351.44;4983569;28;20044;-90
2022/10/21 02:22:52;;;;;;;14.35;8.18;;;;;;;5.00;77.66;100349.00;4972911;28;20022;-89
2022/10/21 02:25:24;;;;;;;17.02;7.95;;;;;;;5.12;78.17;100373.22;4967648;28;20034;-90
2022/10/21 02:27:49;;;;;;;13.45;7.55;;;;;;;5.31;76.34;100361.66;4967415;28;20032;-90
2022/10/21 02:30:15;;;;;;;11.65;7.97;;;;;;;5.35;76.02;100349.53;4987759;28;20408;-90
2022/10/21 02:32:49;;;;;;;11.65;7.82;;;;;;;5.50;76.59;100369.81;4985465;28;20076;-92
2022/10/21 02:35:36;;;;;;;18.45;9.13;;;;;;;5.30;76.46;100356.53;4988059;28;20037;-91
2022/10/21 02:38:09;;;;;;;11.80;8.13;;;;;;;5.41;75.80;100351.34;4984570;28;20083;-92
2022/10/21 02:40:47;;;;;;;11.63;7.30;;;;;;;5.67;75.53;100374.50;4983681;28;20033;-92
2022/10/21 02:43:18;;;;;;;10.40;7.30;;;;;;;5.69;74.44;100366.28;4970007;28;20434;-91
2022/10/21 02:45:47;;;;;;;11.95;7.65;;;;;;;5.83;74.39;100375.03;4965235;28;20059;-91
2022/10/21 02:48:12;;;;;;;11.55;7.68;;;;;;;5.95;74.21;100373.38;4967850;28;20032;-89
2022/10/21 02:50:38;;;;;;;14.23;8.02;;;;;;;5.97;73.46;100367.81;4969306;28;20121;-91
2022/10/21 02:53:03;;;;;;;11.63;8.23;;;;;;;5.90;74.25;100364.34;4965765;28;20364;-92
2022/10/21 02:55:29;;;;;;;15.85;9.57;;;;;;;5.75;74.76;100372.59;4964586;28;20578;-91
2022/10/21 02:57:54;;;;;;;12.07;8.57;;;;;;;5.63;74.89;100367.94;4970231;28;20088;-91
2022/10/21 03:00:20;;;;;;;16.17;9.13;;;;;;;5.54;75.18;100366.53;4967507;28;20480;-91
2022/10/21 03:02:45;;;;;;;16.35;9.43;;;;;;;5.46;76.34;100370.25;4969857;28;20028;-91
2022/10/21 03:05:11;;;;;;;18.50;9.82;;;;;;;5.42;76.22;100381.56;4986352;28;20111;-89
2022/10/21 03:07:37;;;;;;;16.15;9.73;;;;;;;5.35;76.01;100378.91;4964725;28;20022;-92
2022/10/21 03:10:04;;;;;;;15.85;9.00;;;;;;;5.28;76.34;100379.97;4970390;28;20110;-90
2022/10/21 03:12:29;;;;;;;18.58;9.25;;;;;;;5.28;75.76;100393.31;4972553;28;20045;-90
2022/10/21 03:14:55;;;;;;;15.15;9.30;;;;;;;5.15;75.85;100386.16;4975825;28;20029;-90
2022/10/21 03:17:20;;;;;;;16.40;7.47;;;;;;;5.05;75.89;100382.03;4986232;28;20026;-90
2022/10/21 03:19:46;;;;;;;14.45;7.60;;;;;;;4.94;75.82;100368.50;4970209;28;20025;-90
2022/10/21 03:22:11;;;;;;;12.50;7.47;;;;;;;4.83;76.59;100378.75;4973163;28;20025;-90
2022/10/21 03:24:37;;;;;;;12.50;8.02;;;;;;;4.79;76.55;100372.22;4989911;28;20021;-90
2022/10/21 03:27:02;;;;;;;11.65;7.45;;;;;;;4.89;76.08;100377.13;4974084;28;20049;-90
2022/10/21 03:29:28;;;;;;;16.55;7.07;;;;;;;4.93;76.54;100391.69;4971818;28;20499;-90
2022/10/21 03:31:53;;;;;;;13.63;7.70;;;;;;;4.96;76.33;100396.63;4992488;28;20032;-90
2022/10/21 03:34:18;;;;;;;12.27;7.53;;;;;;;4.71;76.68;100363.59;4977435;28;20021;-90
2022/10/21 03:36:44;;;;;;;19.10;7.18;;;;;;;4.81;76.21;100372.00;4971668;28;20025;-90
2022/10/21 03:39:10;;;;;;;14.55;7.85;;;;;;;4.83;76.15;100385.94;4974290;28;20507;-90
2022/10/21 03:41:35;;;;;;;9.93;6.38;;;;;;;4.74;76.92;100380.00;4976404;28;20578;-90
2022/10/21 03:44:01;;;;;;;9.90;6.47;;;;;;;4.69;76.61;100381.63;4974199;28;20101;-90
2022/10/21 03:46:26;;;;;;;13.43;7.20;;;;;;;4.76;76.71;100396.63;4972766;28;20029;-90
2022/10/21 03:48:52;;;;;;;11.52;7.47;;;;;;;4.74;76.53;100397.88;4973139;28;20051;-90
2022/10/21 03:51:17;;;;;;;14.93;6.68;;;;;;;4.86;76.21;100397.03;4982521;28;20045;-90
2022/10/21 03:53:43;;;;;;;12.27;6.35;;;;;;;4.75;76.95;100381.66;4967427;28;20029;-91
2022/10/21 03:56:08;;;;;;;11.68;6.97;;;;;;;4.79;77.09;100379.38;4962340;28;20017;-90
2022/10/21 03:58:34;;;;;;;11.57;6.97;;;;;;;4.80;76.63;100389.88;4973224;28;20087;-92
2022/10/21 04:01:00;;;;;;;14.63;7.00;;;;;;;4.73;77.46;100391.72;4970634;28;20025;-90
2022/10/21 04:03:26;;;;;;;13.98;7.55;;;;;;;4.80;76.35;100378.38;4974242;28;20025;-93
2022/10/21 04:05:51;;;;;;;15.15;6.85;;;;;;;5.05;76.10;100394.56;4970763;28;20062;-92
2022/10/21 04:08:17;;;;;;;14.30;7.28;;;;;;;4.97;76.07;100394.78;4946314;28;20030;-90
2022/10/21 04:10:44;;;;;;;11.98;7.43;;;;;;;4.90;75.61;100362.78;4946479;28;20037;-92
2022/10/21 04:13:09;;;;;;;11.13;7.45;;;;;;;4.90;76.62;100380.59;4946546;28;20109;-89
2022/10/21 04:15:35;;;;;;;12.77;7.00;;;;;;;4.85;76.50;100375.91;4962453;28;20022;-90
2022/10/21 04:18:00;;;;;;;19.42;7.63;;;;;;;4.80;76.11;100378.38;4947078;28;20096;-91
2022/10/21 04:20:26;;;;;;;14.75;8.07;;;;;;;4.76;76.51;100388.63;4946979;28;20033;-90
2022/10/21 04:22:51;;;;;;;12.43;7.82;;;;;;;4.70;76.67;100385.97;4946276;28;20420;-90
2022/10/21 04:25:16;;;;;;;14.27;8.43;;;;;;;4.59;76.56;100376.72;4945389;28;20033;-91
2022/10/21 04:27:42;;;;;;;13.48;7.50;;;;;;;4.60;76.88;100381.03;4962452;28;20019;-91
2022/10/21 04:30:08;;;;;;;15.10;8.52;;;;;;;4.63;77.02;100384.13;4946608;28;20030;-90
2022/10/21 04:32:33;;;;;;;12.00;7.75;;;;;;;4.60;76.12;100389.03;4962433;28;20097;-91
2022/10/21 04:34:59;;;;;;;18.90;8.35;;;;;;;4.55;76.16;100380.84;4946668;28;20022;-91
2022/10/21 04:37:24;;;;;;;12.80;7.72;;;;;;;4.50;76.31;100381.41;4953813;28;20029;-94
2022/10/21 04:39:50;;;;;;;13.40;7.63;;;;;;;4.59;75.97;100390.06;4965703;28;20030;-94
2022/10/21 04:42:15;;;;;;;15.73;7.32;;;;;;;4.59;76.19;100387.41;4973547;28;20022;-91
2022/10/21 04:44:41;;;;;;;12.70;8.30;;;;;;;4.54;76.45;100395.19;4968975;28;20026;-93
2022/10/21 04:47:06;;;;;;;14.15;8.57;;;;;;;4.50;76.34;100376.09;4949247;28;20489;-91
2022/10/21 04:49:32;;;;;;;15.95;8.75;;;;;;;4.54;75.68;100382.66;4967220;28;20120;-93
2022/10/21 04:51:57;;;;;;;17.80;9.68;;;;;;;4.65;75.42;100394.59;4982469;28;20075;-93
2022/10/21 04:54:26;;;;;;;19.02;9.75;;;;;;;4.51;75.85;100376.94;4979723;28;20033;-92
2022/10/21 04:56:54;;;;;;;22.92;10.02;;;;;;;4.65;75.69;100414.06;4968174;28;20030;-92
2022/10/21 04:59:28;;;;;;;20.95;11.27;;;;;;;4.30;76.86;100370.75;4984852;28;20033;-93
2022/10/21 05:01:59;;;;;;;17.08;10.15;;;;;;;4.37;76.95;100394.75;4986103;28;20018;-94
2022/10/21 05:04:24;;;;;;;17.77;10.77;;;;;;;4.30;76.55;100384.06;4969347;28;20030;-92
2022/10/21 05:06:50;;;;;;;18.52;10.95;;;;;;;4.39;77.17;100388.19;4966536;28;20025;-90
2022/10/21 05:09:15;;;;;;;28.42;10.43;;;;;;;4.49;76.54;100402.97;4966268;28;20032;-93
2022/10/21 05:11:43;;;;;;;21.13;11.65;;;;;;;4.54;76.88;100406.66;4983220;28;20029;-94
2022/10/21 05:14:11;;;;;;;19.58;10.00;;;;;;;4.36;76.85;100375.25;4968894;28;20026;-96
2022/10/21 05:16:39;;;;;;;20.40;10.27;;;;;;;4.54;76.37;100393.31;4981333;28;20033;-94
2022/10/21 05:19:06;;;;;;;22.45;10.27;;;;;;;4.60;76.16;100386.34;4975886;28;20068;-94
2022/10/21 05:21:32;;;;;;;16.70;9.15;;;;;;;4.72;75.82;100402.59;4973360;28;20060;-91
2022/10/21 05:23:57;;;;;;;19.83;10.57;;;;;;;4.84;75.82;100420.44;4965911;28;20112;-93
2022/10/21 05:26:23;;;;;;;23.33;10.02;;;;;;;4.68;75.81;100401.34;4965677;28;20022;-93
2022/10/21 05:28:48;;;;;;;16.02;9.00;;;;;;;4.81;75.80;100415.50;4964282;28;20027;-93
2022/10/21 05:31:14;;;;;;;14.68;9.50;;;;;;;4.82;76.22;100403.81;4990022;28;20093;-93
2022/10/21 05:33:40;;;;;;;14.30;9.68;;;;;;;4.95;75.74;100419.00;4972774;28;20112;-92
2022/10/21 05:36:07;;;;;;;18.70;11.60;;;;;;;4.98;76.03;100423.09;4988449;28;20029;-92
2022/10/21 05:38:35;;;;;;;18.00;9.30;;;;;;;5.10;74.66;100434.00;4974048;28;20013;-93
2022/10/21 05:41:21;;;;;;;13.23;8.75;;;;;;;5.19;74.46;100441.59;4992201;28;20085;-95
2022/10/21 05:43:49;;;;;;;16.25;8.68;;;;;;;4.97;73.94;100405.47;5006402;28;20565;-92
2022/10/21 05:46:14;;;;;;;18.05;8.98;;;;;;;5.18;74.49;100433.78;4973031;28;20026;-92
2022/10/21 05:48:40;;;;;;;20.05;8.43;;;;;;;5.19;74.81;100427.44;4965903;28;20112;-93
2022/10/21 05:51:07;;;;;;;24.10;10.32;;;;;;;5.39;73.90;100430.06;4967870;28;20798;-94
2022/10/21 05:53:35;;;;;;;17.23;9.85;;;;;;;5.30;74.30;100418.78;4966116;28;20045;-93
2022/10/21 05:56:04;;;;;;;21.58;9.82;;;;;;;5.28;74.50;100404.00;4968657;28;20124;-91
2022/10/21 05:58:30;;;;;;;22.08;11.20;;;;;;;5.59;73.64;100438.84;4969158;28;20030;-91
2022/10/21 06:00:56;;;;;;;27.88;12.07;;;;;;;5.55;73.76;100428.78;4974774;28;20122;-90
2022/10/21 06:03:23;;;;;;;27.10;11.55;;;;;;;5.71;73.52;100433.69;4966791;28;20059;-92
2022/10/21 06:05:48;;;;;;;23.38;11.27;;;;;;;5.71;73.58;100416.81;4983836;28;20025;-93
2022/10/21 06:08:16;;;;;;;18.55;11.73;;;;;;;5.94;72.74;100437.72;4983857;28;20143;-93
2022/10/21 06:10:42;;;;;;;22.00;12.13;;;;;;;5.85;73.36;100413.91;4985144;28;20101;-91
2022/10/21 06:13:08;;;;;;;23.75;12.57;;;;;;;6.01;73.54;100417.16;4984455;28;20021;-94
2022/10/21 06:15:33;;;;;;;19.27;11.95;;;;;;;6.06;73.15;100406.66;4979392;28;20026;-94
2022/10/21 06:17:59;;;;;;;24.52;11.77;;;;;;;6.33;72.60;100436.75;4971095;28;20030;-91
2022/10/21 06:20:24;;;;;;;19.40;10.88;;;;;;;6.35;72.06;100415.97;4968409;28;20029;-91
2022/10/21 06:22:50;;;;;;;21.17;12.30;;;;;;;6.46;71.56;100417.94;4964669;28;20030;-94
2022/10/21 06:25:27;;;;;;;28.88;13.13;;;;;;;6.57;71.60;100426.31;4966214;28;20037;-94
2022/10/21 06:27:52;;;;;;;18.65;11.52;;;;;;;6.82;71.30;100445.91;4984267;28;20025;-92
2022/10/21 06:30:18;;;;;;;36.63;14.73;;;;;;;6.86;70.98;100431.03;4981778;28;20025;-94
2022/10/21 06:32:48;;;;;;;29.98;14.07;;;;;;;6.97;71.21;100424.19;5004695;28;20034;-94
2022/10/21 06:35:14;;;;;;;24.85;12.57;;;;;;;7.24;70.81;100443.53;4981175;28;20033;-94
2022/10/21 06:37:39;;;;;;;32.00;15.90;;;;;;;7.46;70.06;100445.78;4969614;28;20432;-88
2022/10/21 06:40:05;;;;;;;20.05;13.10;;;;;;;7.68;69.69;100438.94;4969346;28;20519;-90
2022/10/21 06:42:36;;;;;;;21.42;12.73;;;;;;;7.86;68.60;100432.78;4967008;28;20030;-93
2022/10/21 06:45:19;;;;;;;30.90;14.75;;;;;;;7.97;68.19;100414.28;4987669;28;20029;-96
2022/10/21 06:47:48;;;;;;;20.73;11.40;;;;;;;8.13;67.75;100418.22;4965268;28;20043;-96
2022/10/21 06:50:14;;;;;;;22.05;12.15;;;;;;;8.40;67.98;100450.88;4924431;29;20078;-96
2022/10/21 06:53:00;;;;;;;21.98;11.98;;;;;;;8.21;67.80;100415.22;4954812;28;20039;-96
2022/10/21 06:55:31;;;;;;;29.27;11.48;;;;;;;8.35;67.93;100416.66;4946921;28;20049;-91
2022/10/21 06:57:58;;;;;;;32.75;14.15;;;;;;;8.48;67.37;100413.81;4920164;29;20114;-92
2022/10/21 07:00:24;;;;;;;27.58;13.18;;;;;;;8.80;66.73;100439.56;4934702;28;20086;-95
2022/10/21 07:02:50;;;;;;;28.08;11.50;;;;;;;8.85;66.49;100426.28;4924765;29;20031;-93
2022/10/21 07:05:15;;;;;;;23.13;10.85;;;;;;;8.98;66.68;100422.56;4944458;28;20034;-92
2022/10/21 07:07:41;;;;;;;21.27;10.60;;;;;;;8.98;65.99;100411.81;4934483;29;20113;-92
2022/10/21 07:10:07;;;;;;;18.00;10.15;;;;;;;9.22;65.01;100416.16;4930092;28;20027;-94
2022/10/21 07:12:32;;;;;;;17.08;11.23;;;;;;;9.43;64.64;100424.69;4916407;28;20117;-92
2022/10/21 07:15:00;;;;;;;19.92;11.80;;;;;;;9.61;64.34;100435.31;4944421;29;20383;-94
2022/10/21 07:17:31;;;;;;;18.65;10.35;;;;;;;9.80;63.95;100435.16;4918319;28;20034;-92
2022/10/21 07:19:57;;;;;;;15.75;9.98;;;;;;;9.67;63.89;100418.22;4974495;28;20040;-92
2022/10/21 07:22:22;;;;;;;15.63;9.10;;;;;;;9.93;63.27;100415.25;4990142;28;20030;-93
2022/10/21 07:24:51;;;;;;;15.70;9.13;;;;;;;10.06;62.54;100410.41;4985889;28;20026;-93
2022/10/21 07:27:16;;;;;;;15.50;8.93;;;;;;;10.12;62.63;100425.59;4982444;28;20421;-94
2022/10/21 07:29:44;;;;;;;16.17;7.75;;;;;;;10.28;61.85;100409.75;4993386;28;20017;-94
2022/10/21 07:32:10;;;;;;;13.23;7.15;;;;;;;10.40;61.72;100407.84;4974858;28;20036;-93
2022/10/21 07:34:35;;;;;;;17.42;7.78;;;;;;;10.60;60.82;100407.38;4986530;28;20026;-90
2022/10/21 07:37:06;;;;;;;9.88;6.28;;;;;;;10.72;61.04;100410.81;4992137;28;20057;-95
2022/10/21 07:39:34;;;;;;;13.25;5.88;;;;;;;10.91;60.49;100406.03;4974594;28;20037;-94
2022/10/21 07:41:59;;;;;;;9.15;5.80;;;;;;;11.05;60.04;100408.38;4993986;28;20029;-92
2022/10/21 07:44:25;;;;;;;10.52;6.05;;;;;;;11.17;59.36;100401.03;4978613;28;20030;-92
2022/10/21 07:46:51;;;;;;;7.50;5.22;;;;;;;11.48;59.10;100418.47;4974155;28;20023;-92
2022/10/21 07:49:17;;;;;;;9.70;5.65;;;;;;;11.46;58.76;100390.13;4971090;28;20049;-92
2022/10/21 07:51:44;;;;;;;8.05;5.28;;;;;;;11.69;58.77;100419.53;4973399;28;20406;-93
2022/10/21 07:54:55;;;;;;;8.73;4.60;;;;;;;11.90;58.14;100422.53;4974394;28;20087;-92
2022/10/21 07:57:20;;;;;;;9.82;5.03;;;;;;;11.89;56.61;100396.59;4990757;28;20041;-93
2022/10/21 07:59:51;;;;;;;7.65;4.22;;;;;;;11.98;56.56;100386.19;4964699;28;20030;-91
2022/10/21 08:02:16;;;;;;;5.28;2.90;;;;;;;12.25;55.13;100408.63;4960469;28;20415;-93
2022/10/21 08:04:42;;;;;;;7.15;3.97;;;;;;;12.30;54.38;100388.97;4965996;28;20037;-93
2022/10/21 08:07:07;;;;;;;5.32;3.75;;;;;;;12.40;53.72;100397.16;4976734;28;20032;-92
2022/10/21 08:09:33;;;;;;;11.15;8.77;;;;;;;12.45;53.72;100389.13;4969529;28;20049;-93
2022/10/21 08:11:59;;;;;;;7.25;4.82;;;;;;;12.53;54.11;100388.66;4964167;28;20041;-95
2022/10/21 08:14:24;;;;;;;6.40;3.95;;;;;;;12.64;53.71;100381.47;4963770;28;20053;-94
2022/10/21 08:16:51;;;;;;;10.50;3.30;;;;;;;12.71;53.45;100384.75;4967326;28;20029;-93
2022/10/21 08:19:18;;;;;;;7.35;4.05;;;;;;;12.80;53.77;100382.38;4968204;28;20025;-91
2022/10/21 08:21:48;;;;;;;6.65;3.53;;;;;;;12.84;52.75;100380.78;4989411;28;20057;-96
2022/10/21 08:24:14;;;;;;;12.70;4.03;;;;;;;13.11;52.99;100399.66;4987217;28;20025;-93
2022/10/21 08:26:39;;;;;;;7.57;3.97;;;;;;;13.15;53.36;100378.31;4966438;28;20122;-93
2022/10/21 08:29:07;;;;;;;5.07;3.95;;;;;;;13.32;53.06;100400.63;4948243;28;20030;-93
2022/10/21 08:31:33;;;;;;;7.07;4.07;;;;;;;13.30;52.91;100374.91;4969934;28;20093;-93
2022/10/21 08:33:58;;;;;;;11.13;3.60;;;;;;;13.40;52.53;100374.97;4977291;28;20029;-93
2022/10/21 08:36:27;;;;;;;11.15;4.03;;;;;;;13.49;52.37;100373.41;4976810;28;20034;-92
2022/10/21 08:38:53;;;;;;;10.52;4.20;;;;;;;13.58;52.08;100362.88;4966681;28;20057;-92
2022/10/21 08:41:28;;;;;;;9.32;4.05;;;;;;;13.90;51.60;100397.13;4964708;28;20048;-96
2022/10/21 08:44:21;;;;;;;5.43;3.25;;;;;;;13.85;49.88;100373.56;5005698;28;20033;-94
2022/10/21 08:46:57;;;;;;;6.78;4.00;;;;;;;13.94;50.66;100371.97;4965347;28;20514;-91
2022/10/21 08:49:48;;;;;;;8.32;3.88;;;;;;;14.13;50.73;100391.25;4979615;28;20137;-94
2022/10/21 08:52:30;;;;;;;5.43;3.60;;;;;;;14.20;50.29;100387.47;4988619;28;20029;-95
2022/10/21 08:54:56;;;;;;;10.90;3.35;;;;;;;14.21;50.92;100381.75;4977968;28;20033;-93
2022/10/21 08:57:22;;;;;;;8.80;3.47;;;;;;;14.23;49.94;100370.66;5001638;28;20032;-92
2022/10/21 08:59:50;;;;;;;6.93;4.03;;;;;;;14.34;50.94;100373.13;4979010;28;20029;-91
2022/10/21 09:02:25;;;;;;;7.05;4.15;;;;;;;14.49;49.46;100372.34;4969029;28;20036;-92
2022/10/21 09:05:35;;;;;;;13.00;5.60;;;;;;;14.73;49.12;100394.34;4994113;28;20037;-91
2022/10/21 09:08:25;;;;;;;6.38;4.50;;;;;;;14.85;47.73;100391.34;4905105;29;20066;-94
2022/10/21 09:11:33;;;;;;;12.43;7.18;;;;;;;14.92;46.73;100396.50;4898159;29;20047;-93
2022/10/21 09:14:35;;;;;;;8.10;5.57;;;;;;;15.04;47.88;100396.22;4991672;28;20037;-91
2022/10/21 09:17:17;;;;;;;7.82;5.68;;;;;;;15.15;46.89;100392.44;5000256;28;20060;-96
2022/10/21 09:20:08;;;;;;;9.15;4.70;;;;;;;15.24;47.91;100389.97;5001459;28;20089;-95
2022/10/21 09:23:02;;;;;;;6.38;3.17;;;;;;;15.26;44.94;100385.06;4977103;28;20033;-96
2022/10/21 09:26:22;;;;;;;6.60;3.20;;;;;;;15.14;45.17;100367.16;4946051;28;20102;-96
2022/10/21 09:28:55;;;;;;;8.63;5.78;;;;;;;15.31;45.32;100366.84;4997216;28;20045;-94
2022/10/21 09:32:09;;;;;;;8.70;5.18;;;;;;;15.33;45.17;100350.31;4975880;28;20075;-96
2022/10/21 09:34:50;;;;;;;6.95;3.97;;;;;;;15.46;46.00;100355.16;5015728;28;20044;-94
2022/10/21 09:37:51;;;;;;;7.90;3.28;;;;;;;15.62;44.78;100371.38;4997214;28;20053;-96
2022/10/21 09:40:19;;;;;;;7.85;3.95;;;;;;;15.57;45.41;100343.16;4998825;28;20042;-95
2022/10/21 09:42:44;;;;;;;11.85;5.10;;;;;;;15.74;45.05;100355.63;4969242;28;20041;-93
2022/10/21 09:45:27;;;;;;;6.97;3.78;;;;;;;15.86;44.83;100368.88;4982321;28;20025;-92
2022/10/21 09:48:19;;;;;;;4.18;2.80;;;;;;;15.92;44.15;100356.91;4982879;28;20467;-94
2022/10/21 09:50:50;;;;;;;7.85;3.30;;;;;;;15.83;44.69;100331.41;4992598;28;20226;-94
2022/10/21 09:53:39;;;;;;;7.57;4.22;;;;;;;15.97;44.59;100365.00;4966671;28;20038;-95
2022/10/21 09:56:17;;;;;;;4.50;2.90;;;;;;;15.75;43.67;100328.19;4981750;28;20064;-93
2022/10/21 09:59:16;;;;;;;4.93;3.15;;;;;;;15.96;43.93;100358.78;4966958;28;20022;-96
2022/10/21 10:01:42;;;;;;;5.32;2.90;;;;;;;15.87;42.90;100337.91;4986048;28;20037;-93
2022/10/21 10:04:38;;;;;;;6.97;2.67;;;;;;;15.87;44.49;100327.03;4961115;28;20029;-93
2022/10/21 10:07:31;;;;;;;4.32;2.80;;;;;;;15.87;44.58;100338.72;4990854;28;20033;-94
2022/10/21 10:10:02;;;;;;;3.83;2.90;;;;;;;15.88;45.43;100340.34;4986523;28;20032;-95
2022/10/21 10:12:33;;;;;;;5.50;3.20;;;;;;;15.95;44.90;100318.31;5010240;28;20113;-91
2022/10/21 10:15:21;;;;;;;5.95;3.55;;;;;;;16.09;45.03;100342.94;4988642;28;20041;-94
2022/10/21 10:17:47;;;;;;;4.53;2.90;;;;;;;16.02;44.70;100320.69;5002155;28;20029;-91
2022/10/21 10:20:23;;;;;;;5.60;3.33;;;;;;;15.94;45.20;100314.78;4984077;28;20048;-93
2022/10/21 10:26:33;;;;;;;4.30;2.63;;;;;;;15.85;44.67;100297.44;5033858;28;20030;-94
2022/10/21 10:29:37;;;;;;;9.43;3.20;;;;;;;15.81;43.87;100290.94;5000918;28;20503;-95
2022/10/21 10:32:08;;;;;;;5.50;3.05;;;;;;;15.96;44.55;100306.34;4998746;28;20037;-94
2022/10/21 10:34:40;;;;;;;9.40;3.63;;;;;;;15.91;44.18;100292.78;4976481;28;20034;-94
2022/10/21 10:37:22;;;;;;;6.97;3.00;;;;;;;16.03;43.29;100304.13;4970610;28;20042;-96
2022/10/21 10:39:50;;;;;;;4.35;2.83;;;;;;;16.14;44.33;100313.00;4965572;28;20420;-94
2022/10/21 10:42:33;;;;;;;7.50;3.53;;;;;;;16.05;44.35;100282.94;4964664;28;20034;-94
2022/10/21 10:45:01;;;;;;;4.60;3.10;;;;;;;16.17;43.64;100299.69;4966129;28;20049;-95
2022/10/21 10:47:34;;;;;;;6.68;4.50;;;;;;;16.19;43.34;100299.41;4982516;28;20092;-94
2022/10/21 10:50:03;;;;;;;5.15;3.10;;;;;;;16.12;43.10;100280.72;4968127;28;20049;-94
2022/10/21 10:52:28;;;;;;;3.75;2.85;;;;;;;16.17;42.71;100283.38;4964883;28;20030;-95
2022/10/21 10:55:09;;;;;;;3.80;2.75;;;;;;;16.30;42.31;100290.06;4963077;28;20150;-96
2022/10/21 10:57:38;;;;;;;4.95;2.53;;;;;;;16.19;42.04;100274.97;4998384;28;20029;-95
2022/10/21 11:00:20;;;;;;;5.28;3.28;;;;;;;16.19;42.45;100279.59;4988884;28;20045;-95
2022/10/21 11:03:17;;;;;;;5.70;3.40;;;;;;;16.22;42.31;100274.38;4982379;28;20037;-96
2022/10/21 11:05:49;;;;;;;8.98;5.53;;;;;;;16.23;42.17;100265.13;4980642;28;20035;-95
2022/10/21 11:08:22;;;;;;;7.25;3.00;;;;;;;16.14;41.92;100251.34;4952169;28;20493;-96
2022/10/21 11:11:03;;;;;;;7.80;3.33;;;;;;;16.22;42.09;100262.69;4963522;28;20022;-95
2022/10/21 11:13:40;;;;;;;7.50;3.00;;;;;;;16.24;42.17;100266.75;4970553;28;20030;-94
2022/10/21 11:16:23;;;;;;;4.25;3.05;;;;;;;16.34;41.58;100274.81;4952424;28;20117;-95
2022/10/21 11:19:22;;;;;;;4.55;3.20;;;;;;;16.28;41.61;100253.41;4982234;28;20022;-96
2022/10/21 11:22:06;;;;;;;6.55;3.30;;;;;;;16.52;41.56;100283.38;4973950;28;20030;-96
2022/10/21 11:25:03;;;;;;;4.18;2.97;;;;;;;16.57;41.33;100273.25;4969477;28;20030;-96
2022/10/21 11:27:47;;;;;;;4.78;2.80;;;;;;;16.64;40.97;100277.53;5003890;28;20474;-95
2022/10/21 11:30:27;;;;;;;19.10;10.35;;;;;;;16.53;41.33;100255.09;5011982;28;20062;-94
2022/10/21 11:33:13;;;;;;;5.40;3.45;;;;;;;16.46;40.91;100230.97;4987903;28;20021;-95
2022/10/21 11:35:38;;;;;;;6.50;3.40;;;;;;;16.67;40.75;100257.97;5007053;28;20450;-96
2022/10/21 11:38:16;;;;;;;6.38;3.42;;;;;;;16.70;40.47;100255.44;5018247;28;20021;-96
2022/10/21 11:40:48;;;;;;;4.97;2.85;;;;;;;16.53;40.40;100222.47;5003638;28;20038;-95
2022/10/21 11:43:29;;;;;;;3.75;3.05;;;;;;;16.75;40.70;100249.16;4974983;28;20026;-95
2022/10/21 11:46:12;;;;;;;6.43;3.17;;;;;;;16.71;40.57;100238.06;4981032;28;20038;-95